sensor_id;sensor_type;location;lat;lon;timestamp;pressure;altitude;pressure_sealevel;temperature;humidity
26043;BME280;13818;52.156;5.382;2022-09-03T00:02:01;100861.13;;;18.62;61.65
26043;BME280;13818;52.156;5.382;2022-09-03T00:04:52;100860.53;;;18.59;61.73
26043;BME280;13818;52.156;5.382;2022-09-03T00:07:31;100864.81;;;18.50;62.27
26043;BME280;13818;52.156;5.382;2022-09-03T00:10:07;100852.44;;;18.47;62.48
26043;BME280;13818;52.156;5.382;2022-09-03T00:12:43;100861.00;;;18.41;62.43
26043;BME280;13818;52.156;5.382;2022-09-03T00:15:14;100857.34;;;18.42;63.15
26043;BME280;13818;52.156;5.382;2022-09-03T00:17:51;100855.84;;;18.38;63.25
26043;BME280;13818;52.156;5.382;2022-09-03T00:20:26;100861.84;;;18.42;62.78
26043;BME280;13818;52.156;5.382;2022-09-03T00:25:58;100857.91;;;18.23;63.87
26043;BME280;13818;52.156;5.382;2022-09-03T00:28:35;100857.31;;;18.19;64.49
26043;BME280;13818;52.156;5.382;2022-09-03T00:31:14;100852.75;;;18.20;64.26
26043;BME280;13818;52.156;5.382;2022-09-03T00:33:49;100851.41;;;18.14;64.42
26043;BME280;13818;52.156;5.382;2022-09-03T00:36:32;100847.22;;;18.10;64.83
26043;BME280;13818;52.156;5.382;2022-09-03T00:39:10;100843.03;;;18.06;65.08
26043;BME280;13818;52.156;5.382;2022-09-03T00:41:48;100836.91;;;18.04;64.99
26043;BME280;13818;52.156;5.382;2022-09-03T00:44:36;100846.69;;;17.94;65.60
26043;BME280;13818;52.156;5.382;2022-09-03T00:47:12;100841.91;;;17.97;65.87
26043;BME280;13818;52.156;5.382;2022-09-03T00:50:00;100846.56;;;17.95;65.78
26043;BME280;13818;52.156;5.382;2022-09-03T00:52:45;100844.41;;;18.00;65.72
26043;BME280;13818;52.156;5.382;2022-09-03T00:55:26;100845.59;;;17.96;65.96
26043;BME280;13818;52.156;5.382;2022-09-03T00:58:14;100841.63;;;17.89;66.53
26043;BME280;13818;52.156;5.382;2022-09-03T01:00:51;100838.41;;;17.84;66.69
26043;BME280;13818;52.156;5.382;2022-09-03T01:03:28;100841.09;;;17.84;66.46
26043;BME280;13818;52.156;5.382;2022-09-03T01:06:11;100840.72;;;17.77;67.07
26043;BME280;13818;52.156;5.382;2022-09-03T01:09:01;100839.50;;;17.81;67.23
26043;BME280;13818;52.156;5.382;2022-09-03T01:11:37;100834.19;;;17.68;67.41
26043;BME280;13818;52.156;5.382;2022-09-03T01:14:30;100829.78;;;17.67;67.87
26043;BME280;13818;52.156;5.382;2022-09-03T01:17:01;100839.38;;;17.71;67.63
26043;BME280;13818;52.156;5.382;2022-09-03T01:19:52;100849.66;;;17.66;68.37
26043;BME280;13818;52.156;5.382;2022-09-03T01:25:48;100847.19;;;17.63;68.52
26043;BME280;13818;52.156;5.382;2022-09-03T01:28:41;100847.41;;;17.60;68.61
26043;BME280;13818;52.156;5.382;2022-09-03T01:31:27;100852.19;;;17.56;68.86
26043;BME280;13818;52.156;5.382;2022-09-03T01:34:22;100845.19;;;17.54;68.89
26043;BME280;13818;52.156;5.382;2022-09-03T01:37:06;100851.66;;;17.51;69.14
26043;BME280;13818;52.156;5.382;2022-09-03T01:39:41;100848.34;;;17.48;69.46
26043;BME280;13818;52.156;5.382;2022-09-03T01:42:22;100845.00;;;17.44;69.78
26043;BME280;13818;52.156;5.382;2022-09-03T01:45:26;100854.06;;;17.43;69.66
26043;BME280;13818;52.156;5.382;2022-09-03T01:48:17;100851.94;;;17.35;70.10
26043;BME280;13818;52.156;5.382;2022-09-03T01:51:00;100842.03;;;17.36;70.24
26043;BME280;13818;52.156;5.382;2022-09-03T01:53:58;100842.16;;;17.34;70.59
26043;BME280;13818;52.156;5.382;2022-09-03T01:56:46;100850.22;;;17.34;70.88
26043;BME280;13818;52.156;5.382;2022-09-03T01:59:32;100852.91;;;17.34;70.40
26043;BME280;13818;52.156;5.382;2022-09-03T02:02:16;100855.84;;;17.31;70.87
26043;BME280;13818;52.156;5.382;2022-09-03T02:05:09;100849.72;;;17.29;71.17
26043;BME280;13818;52.156;5.382;2022-09-03T02:07:42;100849.97;;;17.26;71.19
26043;BME280;13818;52.156;5.382;2022-09-03T02:10:15;100844.31;;;17.29;71.35
26043;BME280;13818;52.156;5.382;2022-09-03T02:12:48;100840.66;;;17.30;70.94
26043;BME280;13818;52.156;5.382;2022-09-03T02:15:24;100838.75;;;17.19;71.11
26043;BME280;13818;52.156;5.382;2022-09-03T02:18:07;100838.09;;;17.29;71.17
26043;BME280;13818;52.156;5.382;2022-09-03T02:20:40;100842.59;;;17.28;70.95
26043;BME280;13818;52.156;5.382;2022-09-03T02:23:10;100840.03;;;17.27;71.38
26043;BME280;13818;52.156;5.382;2022-09-03T02:25:46;100842.41;;;17.18;71.12
26043;BME280;13818;52.156;5.382;2022-09-03T02:28:15;100842.66;;;17.15;72.19
26043;BME280;13818;52.156;5.382;2022-09-03T02:30:45;100843.00;;;17.11;71.78
26043;BME280;13818;52.156;5.382;2022-09-03T02:33:21;100847.53;;;17.10;72.71
26043;BME280;13818;52.156;5.382;2022-09-03T02:35:51;100842.03;;;17.12;72.23
26043;BME280;13818;52.156;5.382;2022-09-03T02:38:21;100849.59;;;17.06;72.68
26043;BME280;13818;52.156;5.382;2022-09-03T02:40:54;100837.97;;;17.06;72.70
26043;BME280;13818;52.156;5.382;2022-09-03T02:43:30;100837.84;;;17.07;72.96
26043;BME280;13818;52.156;5.382;2022-09-03T02:46:16;100842.06;;;16.99;73.42
26043;BME280;13818;52.156;5.382;2022-09-03T02:48:51;100842.41;;;16.94;73.60
26043;BME280;13818;52.156;5.382;2022-09-03T02:51:23;100838.19;;;16.90;73.91
26043;BME280;13818;52.156;5.382;2022-09-03T02:53:57;100841.00;;;16.88;74.17
26043;BME280;13818;52.156;5.382;2022-09-03T02:56:32;100837.16;;;16.80;73.96
26043;BME280;13818;52.156;5.382;2022-09-03T02:59:02;100831.66;;;16.81;74.41
26043;BME280;13818;52.156;5.382;2022-09-03T03:01:35;100825.50;;;16.79;74.57
26043;BME280;13818;52.156;5.382;2022-09-03T03:04:09;100829.28;;;16.76;75.13
26043;BME280;13818;52.156;5.382;2022-09-03T03:06:44;100831.25;;;16.74;75.09
26043;BME280;13818;52.156;5.382;2022-09-03T03:09:15;100826.28;;;16.68;75.30
26043;BME280;13818;52.156;5.382;2022-09-03T03:11:50;100825.41;;;16.68;75.56
26043;BME280;13818;52.156;5.382;2022-09-03T03:14:21;100833.72;;;16.65;75.74
26043;BME280;13818;52.156;5.382;2022-09-03T03:16:50;100831.34;;;16.60;75.47
26043;BME280;13818;52.156;5.382;2022-09-03T03:19:18;100829.44;;;16.62;76.14
26043;BME280;13818;52.156;5.382;2022-09-03T03:21:46;100829.19;;;16.65;75.76
26043;BME280;13818;52.156;5.382;2022-09-03T03:24:13;100822.56;;;16.58;75.86
26043;BME280;13818;52.156;5.382;2022-09-03T03:26:43;100823.09;;;16.63;75.72
26043;BME280;13818;52.156;5.382;2022-09-03T03:29:19;100820.06;;;16.55;76.57
26043;BME280;13818;52.156;5.382;2022-09-03T03:31:53;100816.63;;;16.66;76.35
26043;BME280;13818;52.156;5.382;2022-09-03T03:34:23;100815.84;;;16.64;75.68
26043;BME280;13818;52.156;5.382;2022-09-03T03:36:52;100817.38;;;16.55;76.16
26043;BME280;13818;52.156;5.382;2022-09-03T03:39:32;100822.78;;;16.42;76.21
26043;BME280;13818;52.156;5.382;2022-09-03T03:42:04;100821.25;;;16.51;76.30
26043;BME280;13818;52.156;5.382;2022-09-03T03:44:38;100818.47;;;16.52;76.62
26043;BME280;13818;52.156;5.382;2022-09-03T03:47:13;100819.88;;;16.58;75.78
26043;BME280;13818;52.156;5.382;2022-09-03T03:49:46;100820.59;;;16.60;76.02
26043;BME280;13818;52.156;5.382;2022-09-03T03:52:13;100822.22;;;16.50;76.36
26043;BME280;13818;52.156;5.382;2022-09-03T03:54:42;100824.28;;;16.46;77.45
26043;BME280;13818;52.156;5.382;2022-09-03T03:57:10;100830.72;;;16.43;77.58
26043;BME280;13818;52.156;5.382;2022-09-03T03:59:45;100822.03;;;16.40;77.54
26043;BME280;13818;52.156;5.382;2022-09-03T04:02:18;100821.38;;;16.36;77.79
26043;BME280;13818;52.156;5.382;2022-09-03T04:04:53;100830.88;;;16.29;78.24
26043;BME280;13818;52.156;5.382;2022-09-03T04:07:27;100831.59;;;16.31;78.27
26043;BME280;13818;52.156;5.382;2022-09-03T04:10:02;100831.53;;;16.33;78.39
26043;BME280;13818;52.156;5.382;2022-09-03T04:12:29;100829.56;;;16.35;78.07
26043;BME280;13818;52.156;5.382;2022-09-03T04:14:57;100822.69;;;16.31;78.61
26043;BME280;13818;52.156;5.382;2022-09-03T04:17:30;100825.56;;;16.27;78.96
26043;BME280;13818;52.156;5.382;2022-09-03T04:20:09;100827.53;;;16.25;79.11
26043;BME280;13818;52.156;5.382;2022-09-03T04:22:43;100826.66;;;16.25;79.16
26043;BME280;13818;52.156;5.382;2022-09-03T04:25:13;100821.50;;;16.22;78.82
26043;BME280;13818;52.156;5.382;2022-09-03T04:27:50;100828.50;;;16.12;79.55
26043;BME280;13818;52.156;5.382;2022-09-03T04:30:22;100823.34;;;16.21;79.69
26043;BME280;13818;52.156;5.382;2022-09-03T04:32:52;100831.19;;;16.24;79.34
26043;BME280;13818;52.156;5.382;2022-09-03T04:35:23;100824.72;;;16.27;79.17
26043;BME280;13818;52.156;5.382;2022-09-03T04:37:51;100828.38;;;16.26;79.89
26043;BME280;13818;52.156;5.382;2022-09-03T04:40:34;100817.63;;;16.26;78.50
26043;BME280;13818;52.156;5.382;2022-09-03T04:43:07;100818.47;;;16.14;78.57
26043;BME280;13818;52.156;5.382;2022-09-03T04:45:39;100816.56;;;16.16;78.84
26043;BME280;13818;52.156;5.382;2022-09-03T04:48:09;100821.09;;;16.15;78.80
26043;BME280;13818;52.156;5.382;2022-09-03T04:50:41;100818.59;;;15.99;79.56
26043;BME280;13818;52.156;5.382;2022-09-03T04:53:13;100823.66;;;16.04;79.35
26043;BME280;13818;52.156;5.382;2022-09-03T04:55:42;100821.94;;;16.16;78.56
26043;BME280;13818;52.156;5.382;2022-09-03T04:58:12;100824.84;;;16.13;78.89
26043;BME280;13818;52.156;5.382;2022-09-03T05:00:39;100827.97;;;16.19;78.48
26043;BME280;13818;52.156;5.382;2022-09-03T05:03:06;100828.63;;;16.10;79.00
26043;BME280;13818;52.156;5.382;2022-09-03T05:05:42;100831.06;;;16.00;79.61
26043;BME280;13818;52.156;5.382;2022-09-03T05:08:10;100831.81;;;16.02;79.52
26043;BME280;13818;52.156;5.382;2022-09-03T05:10:57;100817.75;;;15.99;79.68
26043;BME280;13818;52.156;5.382;2022-09-03T05:13:27;100834.84;;;16.10;79.28
26043;BME280;13818;52.156;5.382;2022-09-03T05:16:01;100832.25;;;16.22;78.63
26043;BME280;13818;52.156;5.382;2022-09-03T05:18:29;100836.34;;;16.27;78.56
26043;BME280;13818;52.156;5.382;2022-09-03T05:21:04;100836.97;;;16.31;77.97
26043;BME280;13818;52.156;5.382;2022-09-03T05:23:38;100836.66;;;16.49;77.57
26043;BME280;13818;52.156;5.382;2022-09-03T05:26:08;100830.72;;;16.43;77.04
26043;BME280;13818;52.156;5.382;2022-09-03T05:28:37;100819.72;;;16.72;75.48
26043;BME280;13818;52.156;5.382;2022-09-03T05:31:10;100822.75;;;16.55;75.95
26043;BME280;13818;52.156;5.382;2022-09-03T05:33:44;100824.00;;;17.01;73.59
26043;BME280;13818;52.156;5.382;2022-09-03T05:36:30;100821.38;;;16.99;73.23
26043;BME280;13818;52.156;5.382;2022-09-03T05:39:05;100826.38;;;16.80;74.16
26043;BME280;13818;52.156;5.382;2022-09-03T05:41:38;100826.50;;;16.78;75.04
26043;BME280;13818;52.156;5.382;2022-09-03T05:44:11;100818.63;;;16.75;75.38
26043;BME280;13818;52.156;5.382;2022-09-03T05:46:43;100819.59;;;16.74;75.76
26043;BME280;13818;52.156;5.382;2022-09-03T05:49:15;100817.63;;;16.89;74.42
26043;BME280;13818;52.156;5.382;2022-09-03T05:51:51;100831.09;;;17.50;72.28
26043;BME280;13818;52.156;5.382;2022-09-03T05:54:30;100830.19;;;18.21;67.48
26043;BME280;13818;52.156;5.382;2022-09-03T05:57:09;100825.41;;;18.81;64.56
26043;BME280;13818;52.156;5.382;2022-09-03T05:59:42;100823.00;;;19.55;60.86
26043;BME280;13818;52.156;5.382;2022-09-03T06:02:19;100829.41;;;19.86;58.78
26043;BME280;13818;52.156;5.382;2022-09-03T06:04:52;100831.44;;;20.15;57.53
26043;BME280;13818;52.156;5.382;2022-09-03T06:07:29;100831.97;;;20.40;56.24
26043;BME280;13818;52.156;5.382;2022-09-03T06:10:01;100836.50;;;20.60;55.98
26043;BME280;13818;52.156;5.382;2022-09-03T06:12:33;100833.06;;;20.99;53.88
26043;BME280;13818;52.156;5.382;2022-09-03T06:15:13;100831.13;;;21.30;52.59
26043;BME280;13818;52.156;5.382;2022-09-03T06:17:47;100841.41;;;21.27;52.15
26043;BME280;13818;52.156;5.382;2022-09-03T06:20:20;100835.41;;;21.43;51.53
26043;BME280;13818;52.156;5.382;2022-09-03T06:23:03;100832.13;;;21.49;51.58
26043;BME280;13818;52.156;5.382;2022-09-03T06:25:36;100831.72;;;21.24;52.08
26043;BME280;13818;52.156;5.382;2022-09-03T06:28:12;100827.47;;;21.61;50.96
26043;BME280;13818;52.156;5.382;2022-09-03T06:30:46;100835.97;;;21.37;51.11
26043;BME280;13818;52.156;5.382;2022-09-03T06:36:12;100830.22;;;22.28;48.94
26043;BME280;13818;52.156;5.382;2022-09-03T06:38:49;100825.63;;;22.29;48.68
26043;BME280;13818;52.156;5.382;2022-09-03T06:41:27;100823.25;;;22.16;49.19
26043;BME280;13818;52.156;5.382;2022-09-03T06:44:06;100834.19;;;22.71;47.33
26043;BME280;13818;52.156;5.382;2022-09-03T06:46:40;100840.00;;;22.58;47.67
26043;BME280;13818;52.156;5.382;2022-09-03T06:49:16;100837.50;;;22.65;46.87
26043;BME280;13818;52.156;5.382;2022-09-03T06:51:50;100841.31;;;23.46;45.67
26043;BME280;13818;52.156;5.382;2022-09-03T06:54:25;100845.00;;;23.37;45.37
26043;BME280;13818;52.156;5.382;2022-09-03T06:56:58;100850.00;;;24.30;43.01
26043;BME280;13818;52.156;5.382;2022-09-03T06:59:32;100859.16;;;24.82;42.26
26043;BME280;13818;52.156;5.382;2022-09-03T07:02:08;100860.41;;;24.96;41.76
26043;BME280;13818;52.156;5.382;2022-09-03T07:04:42;100862.09;;;25.48;40.93
26043;BME280;13818;52.156;5.382;2022-09-03T07:07:16;100854.09;;;25.55;39.85
26043;BME280;13818;52.156;5.382;2022-09-03T07:09:53;100847.09;;;23.79;44.36
26043;BME280;13818;52.156;5.382;2022-09-03T07:12:26;100858.09;;;23.78;44.56
26043;BME280;13818;52.156;5.382;2022-09-03T07:14:58;100852.59;;;23.33;45.22
26043;BME280;13818;52.156;5.382;2022-09-03T07:17:36;100851.34;;;24.87;42.20
26043;BME280;13818;52.156;5.382;2022-09-03T07:20:09;100858.88;;;25.44;40.57
26043;BME280;13818;52.156;5.382;2022-09-03T07:22:43;100845.06;;;25.79;39.32
26043;BME280;13818;52.156;5.382;2022-09-03T07:25:23;100851.88;;;25.50;40.17
26043;BME280;13818;52.156;5.382;2022-09-03T07:27:59;100848.63;;;25.63;40.13
26043;BME280;13818;52.156;5.382;2022-09-03T07:30:47;100853.06;;;25.80;40.03
26043;BME280;13818;52.156;5.382;2022-09-03T07:33:20;100844.56;;;25.67;39.99
26043;BME280;13818;52.156;5.382;2022-09-03T07:36:05;100858.00;;;24.32;43.13
26043;BME280;13818;52.156;5.382;2022-09-03T07:38:38;100853.91;;;24.54;42.50
26043;BME280;13818;52.156;5.382;2022-09-03T07:41:13;100856.09;;;24.24;42.75
26043;BME280;13818;52.156;5.382;2022-09-03T07:44:14;100861.81;;;25.16;41.57
26043;BME280;13818;52.156;5.382;2022-09-03T07:47:01;100853.75;;;24.29;42.78
26043;BME280;13818;52.156;5.382;2022-09-03T07:49:37;100860.84;;;23.96;43.82
26043;BME280;13818;52.156;5.382;2022-09-03T07:52:13;100858.13;;;22.58;47.89
26043;BME280;13818;52.156;5.382;2022-09-03T07:54:45;100855.03;;;22.81;48.00
26043;BME280;13818;52.156;5.382;2022-09-03T07:57:28;100852.28;;;23.72;46.10
26043;BME280;13818;52.156;5.382;2022-09-03T08:00:01;100841.00;;;23.67;45.46
26043;BME280;13818;52.156;5.382;2022-09-03T08:02:50;100851.78;;;24.40;44.35
26043;BME280;13818;52.156;5.382;2022-09-03T08:05:22;100847.91;;;24.50;43.00
26043;BME280;13818;52.156;5.382;2022-09-03T08:10:44;100856.38;;;24.65;42.92
26043;BME280;13818;52.156;5.382;2022-09-03T08:13:21;100852.84;;;23.94;43.78
26043;BME280;13818;52.156;5.382;2022-09-03T08:15:56;100853.63;;;23.50;44.84
26043;BME280;13818;52.156;5.382;2022-09-03T08:18:34;100846.88;;;23.36;45.62
26043;BME280;13818;52.156;5.382;2022-09-03T08:21:14;100858.53;;;24.27;43.29
26043;BME280;13818;52.156;5.382;2022-09-03T08:23:47;100856.38;;;24.65;42.37
26043;BME280;13818;52.156;5.382;2022-09-03T08:26:21;100861.41;;;24.87;41.49
26043;BME280;13818;52.156;5.382;2022-09-03T08:28:56;100856.72;;;24.71;41.55
26043;BME280;13818;52.156;5.382;2022-09-03T08:31:33;100857.78;;;24.78;41.90
26043;BME280;13818;52.156;5.382;2022-09-03T08:34:10;100865.41;;;24.40;42.54
26043;BME280;13818;52.156;5.382;2022-09-03T08:36:45;100859.28;;;24.46;42.34
26043;BME280;13818;52.156;5.382;2022-09-03T08:39:27;100867.97;;;24.41;43.03
26043;BME280;13818;52.156;5.382;2022-09-03T08:42:20;100861.50;;;24.42;42.64
26043;BME280;13818;52.156;5.382;2022-09-03T08:45:02;100867.81;;;24.43;43.06
26043;BME280;13818;52.156;5.382;2022-09-03T08:47:41;100864.59;;;24.47;42.56
26043;BME280;13818;52.156;5.382;2022-09-03T08:50:25;100856.91;;;24.77;41.84
26043;BME280;13818;52.156;5.382;2022-09-03T08:53:11;100853.84;;;24.46;43.10
26043;BME280;13818;52.156;5.382;2022-09-03T08:55:52;100851.94;;;24.12;43.21
26043;BME280;13818;52.156;5.382;2022-09-03T08:58:27;100853.69;;;23.59;44.97
26043;BME280;13818;52.156;5.382;2022-09-03T09:01:09;100865.00;;;24.34;42.72
26043;BME280;13818;52.156;5.382;2022-09-03T09:03:50;100857.09;;;24.23;42.74
26043;BME280;13818;52.156;5.382;2022-09-03T09:06:29;100856.72;;;23.55;44.69
26043;BME280;13818;52.156;5.382;2022-09-03T09:09:16;100860.69;;;24.50;42.59
26043;BME280;13818;52.156;5.382;2022-09-03T09:11:59;100860.59;;;24.94;41.58
26043;BME280;13818;52.156;5.382;2022-09-03T09:14:49;100860.28;;;24.71;42.03
26043;BME280;13818;52.156;5.382;2022-09-03T09:17:44;100856.16;;;24.59;42.08
26043;BME280;13818;52.156;5.382;2022-09-03T09:23:17;100856.84;;;25.04;40.91
26043;BME280;13818;52.156;5.382;2022-09-03T09:25:54;100862.53;;;25.10;40.55
26043;BME280;13818;52.156;5.382;2022-09-03T09:28:36;100865.56;;;25.07;41.36
26043;BME280;13818;52.156;5.382;2022-09-03T09:31:14;100854.59;;;24.91;41.02
26043;BME280;13818;52.156;5.382;2022-09-03T09:33:49;100854.81;;;25.06;40.77
26043;BME280;13818;52.156;5.382;2022-09-03T09:36:25;100864.16;;;24.95;41.12
26043;BME280;13818;52.156;5.382;2022-09-03T09:39:08;100853.81;;;25.07;41.38
26043;BME280;13818;52.156;5.382;2022-09-03T09:41:56;100848.25;;;24.74;42.21
26043;BME280;13818;52.156;5.382;2022-09-03T09:44:46;100855.34;;;24.40;43.11
26043;BME280;13818;52.156;5.382;2022-09-03T09:47:29;100855.44;;;24.91;42.11
26043;BME280;13818;52.156;5.382;2022-09-03T09:50:20;100850.97;;;25.33;41.21
26043;BME280;13818;52.156;5.382;2022-09-03T09:53:06;100864.06;;;25.13;41.37
26043;BME280;13818;52.156;5.382;2022-09-03T09:55:56;100859.53;;;24.52;42.42
26043;BME280;13818;52.156;5.382;2022-09-03T09:58:45;100853.75;;;24.29;42.97
26043;BME280;13818;52.156;5.382;2022-09-03T10:01:21;100851.34;;;24.52;42.37
26043;BME280;13818;52.156;5.382;2022-09-03T10:03:59;100853.44;;;24.59;43.44
26043;BME280;13818;52.156;5.382;2022-09-03T10:06:52;100858.38;;;24.63;43.84
26043;BME280;13818;52.156;5.382;2022-09-03T10:09:31;100849.59;;;24.17;44.88
26043;BME280;13818;52.156;5.382;2022-09-03T10:12:16;100856.63;;;24.28;45.08
26043;BME280;13818;52.156;5.382;2022-09-03T10:14:58;100853.09;;;24.35;43.65
26043;BME280;13818;52.156;5.382;2022-09-03T10:17:44;100846.19;;;24.49;43.76
26043;BME280;13818;52.156;5.382;2022-09-03T10:20:33;100853.00;;;24.45;43.09
26043;BME280;13818;52.156;5.382;2022-09-03T10:23:19;100848.94;;;24.49;43.13
26043;BME280;13818;52.156;5.382;2022-09-03T10:25:59;100842.41;;;24.68;42.74
26043;BME280;13818;52.156;5.382;2022-09-03T10:28:37;100833.09;;;24.79;43.13
26043;BME280;13818;52.156;5.382;2022-09-03T10:31:32;100840.31;;;24.97;41.79
26043;BME280;13818;52.156;5.382;2022-09-03T10:34:26;100837.91;;;24.94;42.17
26043;BME280;13818;52.156;5.382;2022-09-03T10:37:11;100845.34;;;24.75;41.76
26043;BME280;13818;52.156;5.382;2022-09-03T10:40:00;100842.84;;;24.56;42.75
26043;BME280;13818;52.156;5.382;2022-09-03T10:42:47;100832.38;;;24.43;42.99
26043;BME280;13818;52.156;5.382;2022-09-03T10:45:37;100839.00;;;24.66;42.43
26043;BME280;13818;52.156;5.382;2022-09-03T10:48:25;100850.69;;;24.59;42.50
26043;BME280;13818;52.156;5.382;2022-09-03T10:51:08;100840.44;;;24.79;42.76
26043;BME280;13818;52.156;5.382;2022-09-03T10:54:08;100826.16;;;24.85;42.76
26043;BME280;13818;52.156;5.382;2022-09-03T10:57:10;100823.44;;;24.93;42.25
26043;BME280;13818;52.156;5.382;2022-09-03T11:00:02;100845.41;;;24.92;41.88
26043;BME280;13818;52.156;5.382;2022-09-03T11:05:55;100834.44;;;24.75;42.70
26043;BME280;13818;52.156;5.382;2022-09-03T11:08:36;100818.63;;;24.79;42.64
26043;BME280;13818;52.156;5.382;2022-09-03T11:11:18;100831.13;;;25.06;42.81
26043;BME280;13818;52.156;5.382;2022-09-03T11:14:04;100829.97;;;25.25;41.92
26043;BME280;13818;52.156;5.382;2022-09-03T11:16:41;100824.09;;;25.38;41.80
26043;BME280;13818;52.156;5.382;2022-09-03T11:19:31;100821.69;;;25.43;40.89
26043;BME280;13818;52.156;5.382;2022-09-03T11:22:11;100819.66;;;25.54;41.30
26043;BME280;13818;52.156;5.382;2022-09-03T11:24:48;100823.56;;;25.43;41.47
26043;BME280;13818;52.156;5.382;2022-09-03T11:27:47;100828.34;;;25.41;41.83
26043;BME280;13818;52.156;5.382;2022-09-03T11:30:33;100815.50;;;25.25;41.84
26043;BME280;13818;52.156;5.382;2022-09-03T11:33:10;100794.56;;;25.50;41.30
26043;BME280;13818;52.156;5.382;2022-09-03T11:35:44;100808.72;;;25.62;41.09
26043;BME280;13818;52.156;5.382;2022-09-03T11:38:27;100815.72;;;25.81;40.87
26043;BME280;13818;52.156;5.382;2022-09-03T11:41:12;100799.84;;;25.85;40.74
26043;BME280;13818;52.156;5.382;2022-09-03T11:43:55;100807.53;;;25.89;40.10
26043;BME280;13818;52.156;5.382;2022-09-03T11:46:32;100803.28;;;25.78;41.05
26043;BME280;13818;52.156;5.382;2022-09-03T11:49:28;100792.00;;;25.73;39.93
26043;BME280;13818;52.156;5.382;2022-09-03T11:52:09;100792.72;;;25.67;40.25
26043;BME280;13818;52.156;5.382;2022-09-03T11:54:50;100783.66;;;25.75;40.51
26043;BME280;13818;52.156;5.382;2022-09-03T11:57:30;100796.44;;;25.82;40.31
26043;BME280;13818;52.156;5.382;2022-09-03T12:00:18;100796.09;;;25.94;40.27
26043;BME280;13818;52.156;5.382;2022-09-03T12:02:59;100794.72;;;25.98;39.81
26043;BME280;13818;52.156;5.382;2022-09-03T12:05:39;100796.09;;;26.10;39.55
26043;BME280;13818;52.156;5.382;2022-09-03T12:08:43;100800.66;;;26.18;38.78
26043;BME280;13818;52.156;5.382;2022-09-03T12:11:37;100796.06;;;26.19;38.91
26043;BME280;13818;52.156;5.382;2022-09-03T12:14:21;100796.06;;;26.19;38.78
26043;BME280;13818;52.156;5.382;2022-09-03T12:17:16;100804.94;;;26.21;39.05
26043;BME280;13818;52.156;5.382;2022-09-03T12:19:56;100803.03;;;26.29;38.52
26043;BME280;13818;52.156;5.382;2022-09-03T12:22:29;100796.88;;;26.27;38.14
26043;BME280;13818;52.156;5.382;2022-09-03T12:25:13;100805.63;;;26.23;38.22
26043;BME280;13818;52.156;5.382;2022-09-03T12:27:50;100804.75;;;26.30;38.25
26043;BME280;13818;52.156;5.382;2022-09-03T12:30:28;100806.97;;;26.35;37.64
26043;BME280;13818;52.156;5.382;2022-09-03T12:33:15;100803.69;;;26.40;37.62
26043;BME280;13818;52.156;5.382;2022-09-03T12:35:59;100808.69;;;26.28;37.24
26043;BME280;13818;52.156;5.382;2022-09-03T12:38:43;100808.50;;;26.29;37.45
26043;BME280;13818;52.156;5.382;2022-09-03T12:41:28;100799.22;;;26.39;37.45
26043;BME280;13818;52.156;5.382;2022-09-03T12:44:05;100806.78;;;26.37;37.61
26043;BME280;13818;52.156;5.382;2022-09-03T12:46:38;100809.31;;;26.46;37.49
26043;BME280;13818;52.156;5.382;2022-09-03T12:49:15;100804.53;;;26.40;37.51
26043;BME280;13818;52.156;5.382;2022-09-03T12:51:56;100804.38;;;26.42;37.49
26043;BME280;13818;52.156;5.382;2022-09-03T12:54:33;100806.41;;;26.40;37.23
26043;BME280;13818;52.156;5.382;2022-09-03T12:57:09;100801.78;;;26.48;36.02
26043;BME280;13818;52.156;5.382;2022-09-03T12:59:43;100814.06;;;26.53;36.16
26043;BME280;13818;52.156;5.382;2022-09-03T13:02:19;100803.13;;;26.53;36.61
26043;BME280;13818;52.156;5.382;2022-09-03T13:04:54;100803.78;;;26.55;35.90
26043;BME280;13818;52.156;5.382;2022-09-03T13:07:32;100797.69;;;26.53;36.16
26043;BME280;13818;52.156;5.382;2022-09-03T13:10:22;100802.06;;;26.62;36.38
26043;BME280;13818;52.156;5.382;2022-09-03T13:12:59;100807.31;;;26.72;36.42
26043;BME280;13818;52.156;5.382;2022-09-03T13:15:37;100798.81;;;26.67;36.58
26043;BME280;13818;52.156;5.382;2022-09-03T13:18:21;100798.81;;;26.67;36.55
26043;BME280;13818;52.156;5.382;2022-09-03T13:21:12;100800.50;;;26.76;36.69
26043;BME280;13818;52.156;5.382;2022-09-03T13:24:02;100807.13;;;26.82;36.60
26043;BME280;13818;52.156;5.382;2022-09-03T13:26:55;100800.81;;;26.81;36.74
26043;BME280;13818;52.156;5.382;2022-09-03T13:29:48;100794.97;;;26.84;36.58
26043;BME280;13818;52.156;5.382;2022-09-03T13:32:31;100798.19;;;26.88;36.53
26043;BME280;13818;52.156;5.382;2022-09-03T13:35:12;100799.25;;;26.87;36.42
26043;BME280;13818;52.156;5.382;2022-09-03T13:38:07;100801.50;;;26.83;35.94
26043;BME280;13818;52.156;5.382;2022-09-03T13:40:53;100799.97;;;26.81;36.67
26043;BME280;13818;52.156;5.382;2022-09-03T13:43:40;100797.69;;;26.84;35.88
26043;BME280;13818;52.156;5.382;2022-09-03T13:46:20;100798.50;;;26.93;35.41
26043;BME280;13818;52.156;5.382;2022-09-03T13:49:04;100793.53;;;26.96;35.49
26043;BME280;13818;52.156;5.382;2022-09-03T13:51:58;100804.06;;;26.76;36.47
26043;BME280;13818;52.156;5.382;2022-09-03T13:54:36;100795.72;;;26.78;36.48
26043;BME280;13818;52.156;5.382;2022-09-03T13:57:26;100793.09;;;26.85;37.23
26043;BME280;13818;52.156;5.382;2022-09-03T14:00:08;100783.41;;;27.05;37.37
26043;BME280;13818;52.156;5.382;2022-09-03T14:02:50;100782.38;;;27.06;37.12
26043;BME280;13818;52.156;5.382;2022-09-03T14:06:00;100785.41;;;27.11;37.23
26043;BME280;13818;52.156;5.382;2022-09-03T14:09:00;100782.63;;;27.20;36.99
26043;BME280;13818;52.156;5.382;2022-09-03T14:11:56;100774.28;;;27.13;37.50